sensor_id;sensor_type;location;lat;lon;timestamp;P1;durP1;ratioP1;P2;durP2;ratioP2
65156;SDS011;52745;49.794;18.258;2022-10-04T00:01:30;5.30;;;1.70;;
65156;SDS011;52745;49.794;18.258;2022-10-04T00:04:15;2.70;;;1.40;;
65156;SDS011;52745;49.794;18.258;2022-10-04T00:06:49;7.20;;;1.67;;
65156;SDS011;52745;49.794;18.258;2022-10-04T00:09:21;7.05;;;1.90;;
65156;SDS011;52745;49.794;18.258;2022-10-04T00:11:51;4.07;;;1.60;;
65156;SDS011;52745;49.794;18.258;2022-10-04T00:14:31;4.65;;;1.40;;
65156;SDS011;52745;49.794;18.258;2022-10-04T00:17:11;8.68;;;1.80;;
65156;SDS011;52745;49.794;18.258;2022-10-04T00:19:48;3.00;;;1.42;;
65156;SDS011;52745;49.794;18.258;2022-10-04T00:22:26;4.57;;;1.45;;
65156;SDS011;52745;49.794;18.258;2022-10-04T00:27:34;5.03;;;1.58;;
65156;SDS011;52745;49.794;18.258;2022-10-04T00:37:57;3.72;;;1.42;;
65156;SDS011;52745;49.794;18.258;2022-10-04T00:40:35;6.00;;;1.50;;
65156;SDS011;52745;49.794;18.258;2022-10-04T00:43:16;6.00;;;1.88;;
65156;SDS011;52745;49.794;18.258;2022-10-04T00:45:51;3.63;;;1.40;;
65156;SDS011;52745;49.794;18.258;2022-10-04T00:51:27;3.50;;;1.40;;
65156;SDS011;52745;49.794;18.258;2022-10-04T00:54:08;7.63;;;1.58;;
65156;SDS011;52745;49.794;18.258;2022-10-04T00:57:01;2.85;;;1.40;;
65156;SDS011;52745;49.794;18.258;2022-10-04T00:59:48;3.58;;;1.40;;
65156;SDS011;52745;49.794;18.258;2022-10-04T01:02:22;3.22;;;1.70;;
65156;SDS011;52745;49.794;18.258;2022-10-04T01:07:35;3.72;;;1.58;;
65156;SDS011;52745;49.794;18.258;2022-10-04T01:10:13;3.78;;;1.48;;
65156;SDS011;52745;49.794;18.258;2022-10-04T01:15:30;5.75;;;1.80;;
65156;SDS011;52745;49.794;18.258;2022-10-04T01:18:26;3.90;;;1.85;;
65156;SDS011;52745;49.794;18.258;2022-10-04T01:26:04;5.97;;;2.70;;
65156;SDS011;52745;49.794;18.258;2022-10-04T01:28:33;7.30;;;2.45;;
65156;SDS011;52745;49.794;18.258;2022-10-04T01:31:00;5.95;;;2.20;;
65156;SDS011;52745;49.794;18.258;2022-10-04T01:33:28;4.60;;;2.40;;
65156;SDS011;52745;49.794;18.258;2022-10-04T01:35:55;9.15;;;2.60;;
65156;SDS011;52745;49.794;18.258;2022-10-04T01:38:22;4.45;;;2.60;;
65156;SDS011;52745;49.794;18.258;2022-10-04T01:40:50;5.43;;;2.75;;
65156;SDS011;52745;49.794;18.258;2022-10-04T01:43:23;4.45;;;3.15;;
65156;SDS011;52745;49.794;18.258;2022-10-04T01:45:57;7.90;;;3.08;;
65156;SDS011;52745;49.794;18.258;2022-10-04T01:48:29;6.05;;;3.67;;
65156;SDS011;52745;49.794;18.258;2022-10-04T01:51:02;10.38;;;4.03;;
65156;SDS011;52745;49.794;18.258;2022-10-04T01:53:36;7.30;;;3.78;;
65156;SDS011;52745;49.794;18.258;2022-10-04T01:56:10;25.73;;;12.25;;
65156;SDS011;52745;49.794;18.258;2022-10-04T01:58:45;6.97;;;4.18;;
65156;SDS011;52745;49.794;18.258;2022-10-04T02:01:18;7.13;;;4.05;;
65156;SDS011;52745;49.794;18.258;2022-10-04T02:06:22;7.30;;;3.88;;
65156;SDS011;52745;49.794;18.258;2022-10-04T02:08:50;5.70;;;3.15;;
65156;SDS011;52745;49.794;18.258;2022-10-04T02:11:23;12.98;;;6.53;;
65156;SDS011;52745;49.794;18.258;2022-10-04T02:13:53;9.63;;;3.90;;
65156;SDS011;52745;49.794;18.258;2022-10-04T02:16:20;9.50;;;4.13;;
65156;SDS011;52745;49.794;18.258;2022-10-04T02:18:48;7.13;;;3.83;;
65156;SDS011;52745;49.794;18.258;2022-10-04T02:21:16;5.90;;;3.00;;
65156;SDS011;52745;49.794;18.258;2022-10-04T02:23:44;13.27;;;5.90;;
65156;SDS011;52745;49.794;18.258;2022-10-04T02:26:12;8.98;;;3.90;;
65156;SDS011;52745;49.794;18.258;2022-10-04T02:28:39;10.70;;;4.25;;
65156;SDS011;52745;49.794;18.258;2022-10-04T02:31:06;6.78;;;3.03;;
65156;SDS011;52745;49.794;18.258;2022-10-04T02:33:56;6.18;;;3.47;;
65156;SDS011;52745;49.794;18.258;2022-10-04T02:36:27;5.75;;;3.53;;
65156;SDS011;52745;49.794;18.258;2022-10-04T02:39:16;9.73;;;4.20;;
65156;SDS011;52745;49.794;18.258;2022-10-04T02:41:48;8.32;;;3.80;;
65156;SDS011;52745;49.794;18.258;2022-10-04T02:44:32;6.43;;;3.70;;
65156;SDS011;52745;49.794;18.258;2022-10-04T02:47:24;8.95;;;4.13;;
65156;SDS011;52745;49.794;18.258;2022-10-04T02:50:05;7.68;;;4.13;;
65156;SDS011;52745;49.794;18.258;2022-10-04T02:52:45;7.93;;;3.95;;
65156;SDS011;52745;49.794;18.258;2022-10-04T02:57:47;10.60;;;5.30;;
65156;SDS011;52745;49.794;18.258;2022-10-04T03:00:18;8.45;;;4.35;;
65156;SDS011;52745;49.794;18.258;2022-10-04T03:05:41;7.88;;;4.97;;
65156;SDS011;52745;49.794;18.258;2022-10-04T03:08:10;11.80;;;5.25;;
65156;SDS011;52745;49.794;18.258;2022-10-04T03:10:38;10.02;;;4.50;;
65156;SDS011;52745;49.794;18.258;2022-10-04T03:13:07;9.32;;;4.55;;
65156;SDS011;52745;49.794;18.258;2022-10-04T03:15:34;9.48;;;4.72;;
65156;SDS011;52745;49.794;18.258;2022-10-04T03:18:01;11.18;;;5.93;;
65156;SDS011;52745;49.794;18.258;2022-10-04T03:20:27;10.68;;;5.53;;
65156;SDS011;52745;49.794;18.258;2022-10-04T03:22:54;17.02;;;5.97;;
65156;SDS011;52745;49.794;18.258;2022-10-04T03:25:27;24.77;;;12.10;;
65156;SDS011;52745;49.794;18.258;2022-10-04T03:27:58;14.05;;;6.32;;
65156;SDS011;52745;49.794;18.258;2022-10-04T03:30:27;9.90;;;5.35;;
65156;SDS011;52745;49.794;18.258;2022-10-04T03:32:57;9.73;;;5.22;;
65156;SDS011;52745;49.794;18.258;2022-10-04T03:35:27;10.88;;;5.75;;
65156;SDS011;52745;49.794;18.258;2022-10-04T03:37:59;10.63;;;5.97;;
65156;SDS011;52745;49.794;18.258;2022-10-04T03:40:29;9.13;;;5.28;;
65156;SDS011;52745;49.794;18.258;2022-10-04T03:42:58;16.17;;;9.10;;
65156;SDS011;52745;49.794;18.258;2022-10-04T03:45:27;15.52;;;8.32;;
65156;SDS011;52745;49.794;18.258;2022-10-04T03:47:55;14.98;;;5.57;;
65156;SDS011;52745;49.794;18.258;2022-10-04T03:50:34;11.48;;;5.05;;
65156;SDS011;52745;49.794;18.258;2022-10-04T03:53:07;15.15;;;5.75;;
65156;SDS011;52745;49.794;18.258;2022-10-04T03:55:50;10.82;;;5.60;;
65156;SDS011;52745;49.794;18.258;2022-10-04T03:58:17;10.82;;;5.03;;
65156;SDS011;52745;49.794;18.258;2022-10-04T04:00:53;15.52;;;7.28;;
65156;SDS011;52745;49.794;18.258;2022-10-04T04:12:13;7.32;;;4.13;;
65156;SDS011;52745;49.794;18.258;2022-10-04T04:14:59;11.98;;;4.03;;
65156;SDS011;52745;49.794;18.258;2022-10-04T04:17:33;9.65;;;4.70;;
65156;SDS011;52745;49.794;18.258;2022-10-04T04:20:03;11.50;;;4.97;;
65156;SDS011;52745;49.794;18.258;2022-10-04T04:22:37;24.73;;;13.50;;
65156;SDS011;52745;49.794;18.258;2022-10-04T04:25:10;7.80;;;3.70;;
65156;SDS011;52745;49.794;18.258;2022-10-04T04:27:40;38.33;;;17.15;;
65156;SDS011;52745;49.794;18.258;2022-10-04T04:30:11;9.13;;;3.70;;
65156;SDS011;52745;49.794;18.258;2022-10-04T04:32:44;5.68;;;3.17;;
65156;SDS011;52745;49.794;18.258;2022-10-04T04:35:28;9.75;;;3.38;;
65156;SDS011;52745;49.794;18.258;2022-10-04T04:38:01;12.52;;;3.40;;
65156;SDS011;52745;49.794;18.258;2022-10-04T04:40:35;7.07;;;3.05;;
65156;SDS011;52745;49.794;18.258;2022-10-04T04:43:02;13.52;;;5.30;;
65156;SDS011;52745;49.794;18.258;2022-10-04T04:45:29;13.77;;;3.53;;
65156;SDS011;52745;49.794;18.258;2022-10-04T04:47:58;7.78;;;3.20;;
65156;SDS011;52745;49.794;18.258;2022-10-04T04:50:30;13.15;;;3.90;;
65156;SDS011;52745;49.794;18.258;2022-10-04T04:55:27;8.95;;;3.30;;
65156;SDS011;52745;49.794;18.258;2022-10-04T04:57:57;9.70;;;3.50;;
65156;SDS011;52745;49.794;18.258;2022-10-04T05:00:28;5.25;;;2.67;;
65156;SDS011;52745;49.794;18.258;2022-10-04T05:03:02;6.75;;;3.17;;
65156;SDS011;52745;49.794;18.258;2022-10-04T05:05:32;7.80;;;3.38;;
65156;SDS011;52745;49.794;18.258;2022-10-04T05:08:10;10.02;;;3.90;;
65156;SDS011;52745;49.794;18.258;2022-10-04T05:10:42;12.73;;;4.43;;
65156;SDS011;52745;49.794;18.258;2022-10-04T05:13:15;11.05;;;3.38;;
65156;SDS011;52745;49.794;18.258;2022-10-04T05:15:43;11.38;;;3.05;;
65156;SDS011;52745;49.794;18.258;2022-10-04T05:18:14;6.75;;;3.00;;
65156;SDS011;52745;49.794;18.258;2022-10-04T05:20:54;7.00;;;2.85;;
65156;SDS011;52745;49.794;18.258;2022-10-04T05:23:22;4.97;;;2.63;;
65156;SDS011;52745;49.794;18.258;2022-10-04T05:25:49;7.40;;;2.90;;
65156;SDS011;52745;49.794;18.258;2022-10-04T05:28:15;8.20;;;2.75;;
65156;SDS011;52745;49.794;18.258;2022-10-04T05:33:50;17.13;;;5.28;;
65156;SDS011;52745;49.794;18.258;2022-10-04T05:36:30;10.50;;;3.50;;
65156;SDS011;52745;49.794;18.258;2022-10-04T05:44:27;11.07;;;4.38;;
65156;SDS011;52745;49.794;18.258;2022-10-04T05:46:58;12.60;;;4.28;;
65156;SDS011;52745;49.794;18.258;2022-10-04T05:49:30;11.27;;;4.50;;
65156;SDS011;52745;49.794;18.258;2022-10-04T05:52:02;9.82;;;4.38;;
65156;SDS011;52745;49.794;18.258;2022-10-04T05:54:36;11.80;;;4.57;;
65156;SDS011;52745;49.794;18.258;2022-10-04T05:57:21;11.10;;;3.60;;
65156;SDS011;52745;49.794;18.258;2022-10-04T06:03:06;12.45;;;3.20;;
65156;SDS011;52745;49.794;18.258;2022-10-04T06:08:08;10.35;;;2.78;;
65156;SDS011;52745;49.794;18.258;2022-10-04T06:22:01;7.03;;;2.60;;
65156;SDS011;52745;49.794;18.258;2022-10-04T06:24:56;9.05;;;2.60;;
65156;SDS011;52745;49.794;18.258;2022-10-04T06:27:36;8.52;;;2.80;;
65156;SDS011;52745;49.794;18.258;2022-10-04T06:30:14;10.35;;;3.00;;
65156;SDS011;52745;49.794;18.258;2022-10-04T06:35:27;10.93;;;2.85;;
65156;SDS011;52745;49.794;18.258;2022-10-04T06:46:27;9.95;;;3.20;;
65156;SDS011;52745;49.794;18.258;2022-10-04T06:51:38;8.48;;;2.90;;
65156;SDS011;52745;49.794;18.258;2022-10-04T07:08:03;10.45;;;6.20;;
65156;SDS011;52745;49.794;18.258;2022-10-04T07:10:47;8.77;;;2.63;;
65156;SDS011;52745;49.794;18.258;2022-10-04T07:13:30;7.75;;;2.65;;
65156;SDS011;52745;49.794;18.258;2022-10-04T07:16:16;7.03;;;2.33;;
65156;SDS011;52745;49.794;18.258;2022-10-04T07:21:41;15.20;;;2.08;;
65156;SDS011;52745;49.794;18.258;2022-10-04T07:24:11;10.88;;;2.47;;
65156;SDS011;52745;49.794;18.258;2022-10-04T07:26:49;8.57;;;2.22;;
65156;SDS011;52745;49.794;18.258;2022-10-04T07:29:19;8.32;;;1.80;;
65156;SDS011;52745;49.794;18.258;2022-10-04T07:37:24;7.18;;;2.53;;
65156;SDS011;52745;49.794;18.258;2022-10-04T07:42:48;7.60;;;2.38;;
65156;SDS011;52745;49.794;18.258;2022-10-04T07:45:29;9.65;;;1.92;;
65156;SDS011;52745;49.794;18.258;2022-10-04T07:48:16;7.88;;;1.80;;
65156;SDS011;52745;49.794;18.258;2022-10-04T07:53:41;11.40;;;2.25;;
65156;SDS011;52745;49.794;18.258;2022-10-04T07:59:36;4.85;;;2.05;;
65156;SDS011;52745;49.794;18.258;2022-10-04T08:07:32;6.63;;;2.03;;
65156;SDS011;52745;49.794;18.258;2022-10-04T08:10:33;7.05;;;1.98;;
65156;SDS011;52745;49.794;18.258;2022-10-04T08:15:47;15.18;;;3.13;;
65156;SDS011;52745;49.794;18.258;2022-10-04T08:21:08;5.82;;;1.30;;
65156;SDS011;52745;49.794;18.258;2022-10-04T08:30:10;7.95;;;1.67;;
65156;SDS011;52745;49.794;18.258;2022-10-04T08:33:04;6.90;;;1.55;;
65156;SDS011;52745;49.794;18.258;2022-10-04T08:35:37;8.85;;;1.58;;
65156;SDS011;52745;49.794;18.258;2022-10-04T08:54:41;6.78;;;1.38;;
65156;SDS011;52745;49.794;18.258;2022-10-04T09:05:56;5.72;;;1.40;;
65156;SDS011;52745;49.794;18.258;2022-10-04T09:11:54;5.55;;;1.58;;
65156;SDS011;52745;49.794;18.258;2022-10-04T09:17:15;10.55;;;1.70;;
65156;SDS011;52745;49.794;18.258;2022-10-04T09:28:26;5.82;;;1.10;;
65156;SDS011;52745;49.794;18.258;2022-10-04T09:39:42;5.55;;;1.40;;
65156;SDS011;52745;49.794;18.258;2022-10-04T09:48:35;4.57;;;1.23;;
65156;SDS011;52745;49.794;18.258;2022-10-04T09:53:49;4.28;;;1.10;;
65156;SDS011;52745;49.794;18.258;2022-10-04T09:59:45;6.03;;;1.50;;
65156;SDS011;52745;49.794;18.258;2022-10-04T10:07:51;4.22;;;1.08;;
65156;SDS011;52745;49.794;18.258;2022-10-04T10:10:46;3.60;;;0.95;;
65156;SDS011;52745;49.794;18.258;2022-10-04T10:20:02;5.10;;;1.50;;
65156;SDS011;52745;49.794;18.258;2022-10-04T10:40:47;4.13;;;1.40;;
65156;SDS011;52745;49.794;18.258;2022-10-04T10:46:47;6.85;;;1.50;;
65156;SDS011;52745;49.794;18.258;2022-10-04T10:50:20;3.28;;;1.25;;
65156;SDS011;52745;49.794;18.258;2022-10-04T10:52:41;6.65;;;1.70;;
65156;SDS011;52745;49.794;18.258;2022-10-04T10:55:27;5.32;;;1.30;;
65156;SDS011;52745;49.794;18.258;2022-10-04T11:04:10;6.45;;;2.72;;
65156;SDS011;52745;49.794;18.258;2022-10-04T11:07:01;10.07;;;2.65;;
65156;SDS011;52745;49.794;18.258;2022-10-04T11:20:56;6.38;;;2.13;;
65156;SDS011;52745;49.794;18.258;2022-10-04T11:29:01;5.95;;;1.50;;
65156;SDS011;52745;49.794;18.258;2022-10-04T11:32:14;4.45;;;1.67;;
65156;SDS011;52745;49.794;18.258;2022-10-04T11:49:07;4.28;;;1.30;;
65156;SDS011;52745;49.794;18.258;2022-10-04T11:57:42;6.03;;;1.27;;
65156;SDS011;52745;49.794;18.258;2022-10-04T12:00:18;9.55;;;2.33;;
65156;SDS011;52745;49.794;18.258;2022-10-04T12:05:46;7.85;;;2.47;;
65156;SDS011;52745;49.794;18.258;2022-10-04T12:16:38;4.80;;;1.80;;
65156;SDS011;52745;49.794;18.258;2022-10-04T12:22:28;5.70;;;2.28;;
65156;SDS011;52745;49.794;18.258;2022-10-04T12:31:04;8.70;;;4.30;;
65156;SDS011;52745;49.794;18.258;2022-10-04T12:33:43;9.70;;;2.15;;
65156;SDS011;52745;49.794;18.258;2022-10-04T12:36:23;16.80;;;7.35;;
65156;SDS011;52745;49.794;18.258;2022-10-04T12:52:32;6.20;;;1.52;;
65156;SDS011;52745;49.794;18.258;2022-10-04T12:57:54;5.45;;;2.08;;
65156;SDS011;52745;49.794;18.258;2022-10-04T13:00:27;6.43;;;1.70;;
65156;SDS011;52745;49.794;18.258;2022-10-04T13:17:17;7.37;;;1.90;;
65156;SDS011;52745;49.794;18.258;2022-10-04T13:23:00;7.78;;;3.35;;
65156;SDS011;52745;49.794;18.258;2022-10-04T13:28:30;4.35;;;1.17;;
65156;SDS011;52745;49.794;18.258;2022-10-04T13:36:26;4.45;;;1.55;;
65156;SDS011;52745;49.794;18.258;2022-10-04T14:07:28;8.35;;;4.20;;
65156;SDS011;52745;49.794;18.258;2022-10-04T14:10:09;5.50;;;2.25;;
65156;SDS011;52745;49.794;18.258;2022-10-04T14:26:58;8.38;;;1.80;;
65156;SDS011;52745;49.794;18.258;2022-10-04T14:35:28;12.38;;;2.00;;
65156;SDS011;52745;49.794;18.258;2022-10-04T14:47:05;8.38;;;3.10;;
65156;SDS011;52745;49.794;18.258;2022-10-04T15:00:18;7.70;;;2.80;;
65156;SDS011;52745;49.794;18.258;2022-10-04T15:02:48;4.85;;;2.00;;
65156;SDS011;52745;49.794;18.258;2022-10-04T15:10:51;5.03;;;1.95;;
65156;SDS011;52745;49.794;18.258;2022-10-04T15:18:43;9.70;;;3.13;;
65156;SDS011;52745;49.794;18.258;2022-10-04T15:37:51;6.57;;;2.90;;
65156;SDS011;52745;49.794;18.258;2022-10-04T15:40:32;11.88;;;4.95;;
65156;SDS011;52745;49.794;18.258;2022-10-04T15:49:13;9.23;;;3.95;;
65156;SDS011;52745;49.794;18.258;2022-10-04T15:57:25;8.10;;;3.58;;
65156;SDS011;52745;49.794;18.258;2022-10-04T16:00:02;7.00;;;4.05;;
65156;SDS011;52745;49.794;18.258;2022-10-04T16:05:24;8.63;;;3.00;;
65156;SDS011;52745;49.794;18.258;2022-10-04T16:08:10;7.22;;;3.10;;
65156;SDS011;52745;49.794;18.258;2022-10-04T16:22:09;8.25;;;3.42;;
65156;SDS011;52745;49.794;18.258;2022-10-04T16:24:47;7.63;;;3.00;;
65156;SDS011;52745;49.794;18.258;2022-10-04T16:30:08;9.48;;;4.05;;
65156;SDS011;52745;49.794;18.258;2022-10-04T16:35:32;6.95;;;3.28;;
65156;SDS011;52745;49.794;18.258;2022-10-04T16:53:41;6.18;;;3.50;;
65156;SDS011;52745;49.794;18.258;2022-10-04T16:56:23;12.20;;;4.20;;
65156;SDS011;52745;49.794;18.258;2022-10-04T16:59:01;10.90;;;4.55;;
65156;SDS011;52745;49.794;18.258;2022-10-04T17:01:54;15.30;;;6.68;;
65156;SDS011;52745;49.794;18.258;2022-10-04T17:09:45;12.55;;;4.15;;
65156;SDS011;52745;49.794;18.258;2022-10-04T17:18:10;7.80;;;4.75;;
65156;SDS011;52745;49.794;18.258;2022-10-04T17:20:47;9.38;;;4.22;;
65156;SDS011;52745;49.794;18.258;2022-10-04T17:28:57;12.60;;;5.03;;
65156;SDS011;52745;49.794;18.258;2022-10-04T17:31:56;10.85;;;5.15;;
65156;SDS011;52745;49.794;18.258;2022-10-04T17:35:11;15.90;;;4.95;;
65156;SDS011;52745;49.794;18.258;2022-10-04T17:40:50;17.02;;;6.05;;
65156;SDS011;52745;49.794;18.258;2022-10-04T17:43:26;18.42;;;8.52;;
65156;SDS011;52745;49.794;18.258;2022-10-04T17:46:11;18.55;;;6.75;;
65156;SDS011;52745;49.794;18.258;2022-10-04T17:49:02;13.77;;;6.03;;
65156;SDS011;52745;49.794;18.258;2022-10-04T17:51:52;19.60;;;8.50;;
65156;SDS011;52745;49.794;18.258;2022-10-04T17:54:44;33.03;;;18.45;;
65156;SDS011;52745;49.794;18.258;2022-10-04T18:00:08;22.70;;;13.48;;
65156;SDS011;52745;49.794;18.258;2022-10-04T18:05:22;19.08;;;7.57;;
65156;SDS011;52745;49.794;18.258;2022-10-04T18:08:00;13.32;;;6.20;;
65156;SDS011;52745;49.794;18.258;2022-10-04T18:10:46;15.60;;;7.93;;
65156;SDS011;52745;49.794;18.258;2022-10-04T18:18:39;14.50;;;7.63;;
65156;SDS011;52745;49.794;18.258;2022-10-04T18:21:23;30.35;;;14.40;;
65156;SDS011;52745;49.794;18.258;2022-10-04T18:26:32;21.23;;;10.07;;
65156;SDS011;52745;49.794;18.258;2022-10-04T18:29:01;14.70;;;6.60;;
65156;SDS011;52745;49.794;18.258;2022-10-04T18:31:39;13.55;;;6.35;;
65156;SDS011;52745;49.794;18.258;2022-10-04T18:36:52;12.63;;;6.40;;
65156;SDS011;52745;49.794;18.258;2022-10-04T18:39:45;16.00;;;7.10;;
65156;SDS011;52745;49.794;18.258;2022-10-04T18:42:21;14.38;;;7.13;;
65156;SDS011;52745;49.794;18.258;2022-10-04T18:47:29;18.77;;;7.45;;
65156;SDS011;52745;49.794;18.258;2022-10-04T18:50:29;13.93;;;7.18;;
65156;SDS011;52745;49.794;18.258;2022-10-04T19:07:16;15.18;;;7.18;;
65156;SDS011;52745;49.794;18.258;2022-10-04T19:12:16;19.85;;;8.45;;
65156;SDS011;52745;49.794;18.258;2022-10-04T19:15:01;14.77;;;7.93;;
65156;SDS011;52745;49.794;18.258;2022-10-04T19:17:48;18.95;;;8.57;;
65156;SDS011;52745;49.794;18.258;2022-10-04T19:20:39;17.65;;;8.77;;
65156;SDS011;52745;49.794;18.258;2022-10-04T19:26:28;15.05;;;8.63;;
65156;SDS011;52745;49.794;18.258;2022-10-04T19:31:45;15.35;;;8.90;;
65156;SDS011;52745;49.794;18.258;2022-10-04T19:34:24;19.88;;;8.32;;
65156;SDS011;52745;49.794;18.258;2022-10-04T19:37:11;17.98;;;8.40;;
65156;SDS011;52745;49.794;18.258;2022-10-04T19:45:40;18.85;;;9.27;;
65156;SDS011;52745;49.794;18.258;2022-10-04T19:48:17;15.55;;;9.00;;
65156;SDS011;52745;49.794;18.258;2022-10-04T19:50:50;20.80;;;9.20;;
65156;SDS011;52745;49.794;18.258;2022-10-04T19:56:02;19.70;;;10.27;;
65156;SDS011;52745;49.794;18.258;2022-10-04T20:01:13;22.57;;;11.80;;
65156;SDS011;52745;49.794;18.258;2022-10-04T20:03:42;21.73;;;10.35;;
65156;SDS011;52745;49.794;18.258;2022-10-04T20:06:09;22.27;;;9.15;;
65156;SDS011;52745;49.794;18.258;2022-10-04T20:11:22;17.17;;;9.43;;
65156;SDS011;52745;49.794;18.258;2022-10-04T20:19:18;15.98;;;8.68;;
65156;SDS011;52745;49.794;18.258;2022-10-04T20:22:51;18.70;;;10.00;;
65156;SDS011;52745;49.794;18.258;2022-10-04T20:29:59;17.95;;;8.57;;
65156;SDS011;52745;49.794;18.258;2022-10-04T20:34:59;16.17;;;9.05;;
65156;SDS011;52745;49.794;18.258;2022-10-04T20:40:55;18.63;;;9.30;;
65156;SDS011;52745;49.794;18.258;2022-10-04T20:45:42;19.27;;;8.75;;
65156;SDS011;52745;49.794;18.258;2022-10-04T20:48:26;16.75;;;9.75;;
65156;SDS011;52745;49.794;18.258;2022-10-04T20:50:55;14.05;;;7.75;;
65156;SDS011;52745;49.794;18.258;2022-10-04T20:53:35;18.20;;;8.13;;
65156;SDS011;52745;49.794;18.258;2022-10-04T20:56:09;14.60;;;7.70;;
65156;SDS011;52745;49.794;18.258;2022-10-04T20:58:54;15.38;;;7.50;;
65156;SDS011;52745;49.794;18.258;2022-10-04T21:01:23;16.33;;;8.48;;
65156;SDS011;52745;49.794;18.258;2022-10-04T21:07:02;12.93;;;6.95;;
65156;SDS011;52745;49.794;18.258;2022-10-04T21:09:34;19.35;;;7.22;;
65156;SDS011;52745;49.794;18.258;2022-10-04T21:12:03;14.60;;;6.97;;
65156;SDS011;52745;49.794;18.258;2022-10-04T21:14:31;13.38;;;6.53;;
65156;SDS011;52745;49.794;18.258;2022-10-04T21:17:02;14.55;;;7.22;;
65156;SDS011;52745;49.794;18.258;2022-10-04T21:22:04;18.10;;;7.35;;
65156;SDS011;52745;49.794;18.258;2022-10-04T21:24:39;17.15;;;6.82;;
65156;SDS011;52745;49.794;18.258;2022-10-04T21:27:11;12.48;;;7.20;;
65156;SDS011;52745;49.794;18.258;2022-10-04T21:29:53;14.50;;;7.05;;
65156;SDS011;52745;49.794;18.258;2022-10-04T21:32:20;16.55;;;7.57;;
65156;SDS011;52745;49.794;18.258;2022-10-04T21:34:47;13.65;;;7.28;;
65156;SDS011;52745;49.794;18.258;2022-10-04T21:37:15;15.70;;;7.18;;
65156;SDS011;52745;49.794;18.258;2022-10-04T21:39:42;14.20;;;7.03;;
65156;SDS011;52745;49.794;18.258;2022-10-04T21:42:09;13.32;;;6.85;;
65156;SDS011;52745;49.794;18.258;2022-10-04T21:44:36;12.52;;;6.43;;
65156;SDS011;52745;49.794;18.258;2022-10-04T21:47:03;12.70;;;6.63;;
65156;SDS011;52745;49.794;18.258;2022-10-04T21:49:29;14.55;;;6.93;;
65156;SDS011;52745;49.794;18.258;2022-10-04T21:51:56;12.90;;;6.63;;
65156;SDS011;52745;49.794;18.258;2022-10-04T21:54:22;11.85;;;6.15;;
65156;SDS011;52745;49.794;18.258;2022-10-04T21:56:49;11.80;;;6.38;;
65156;SDS011;52745;49.794;18.258;2022-10-04T21:59:15;12.55;;;6.80;;
65156;SDS011;52745;49.794;18.258;2022-10-04T22:01:42;13.55;;;6.90;;
65156;SDS011;52745;49.794;18.258;2022-10-04T22:04:08;14.35;;;6.65;;
65156;SDS011;52745;49.794;18.258;2022-10-04T22:06:35;22.60;;;6.82;;
65156;SDS011;52745;49.794;18.258;2022-10-04T22:09:02;11.95;;;6.45;;
65156;SDS011;52745;49.794;18.258;2022-10-04T22:11:28;12.38;;;6.25;;
65156;SDS011;52745;49.794;18.258;2022-10-04T22:13:55;14.25;;;6.70;;
65156;SDS011;52745;49.794;18.258;2022-10-04T22:16:21;13.05;;;6.60;;
65156;SDS011;52745;49.794;18.258;2022-10-04T22:18:48;15.50;;;6.97;;
65156;SDS011;52745;49.794;18.258;2022-10-04T22:21:15;16.45;;;6.63;;
65156;SDS011;52745;49.794;18.258;2022-10-04T22:23:42;15.52;;;6.80;;
65156;SDS011;52745;49.794;18.258;2022-10-04T22:26:13;14.95;;;6.40;;
65156;SDS011;52745;49.794;18.258;2022-10-04T22:28:43;13.70;;;6.43;;
65156;SDS011;52745;49.794;18.258;2022-10-04T22:31:13;17.60;;;6.88;;
65156;SDS011;52745;49.794;18.258;2022-10-04T22:33:41;14.32;;;6.50;;
65156;SDS011;52745;49.794;18.258;2022-10-04T22:36:20;11.90;;;6.30;;
65156;SDS011;52745;49.794;18.258;2022-10-04T22:41:43;14.10;;;6.40;;
65156;SDS011;52745;49.794;18.258;2022-10-04T22:46:46;14.68;;;6.80;;
65156;SDS011;52745;49.794;18.258;2022-10-04T22:49:16;17.25;;;6.70;;
65156;SDS011;52745;49.794;18.258;2022-10-04T22:51:47;15.57;;;6.90;;
65156;SDS011;52745;49.794;18.258;2022-10-04T22:54:16;13.48;;;7.00;;
65156;SDS011;52745;49.794;18.258;2022-10-04T22:56:47;17.45;;;7.18;;
65156;SDS011;52745;49.794;18.258;2022-10-04T22:59:16;15.20;;;7.47;;
65156;SDS011;52745;49.794;18.258;2022-10-04T23:01:45;14.52;;;7.35;;
65156;SDS011;52745;49.794;18.258;2022-10-04T23:04:22;13.65;;;7.28;;
65156;SDS011;52745;49.794;18.258;2022-10-04T23:06:50;15.65;;;7.80;;
65156;SDS011;52745;49.794;18.258;2022-10-04T23:09:18;15.15;;;6.90;;
65156;SDS011;52745;49.794;18.258;2022-10-04T23:11:45;12.75;;;7.15;;
65156;SDS011;52745;49.794;18.258;2022-10-04T23:14:11;20.23;;;7.55;;
65156;SDS011;52745;49.794;18.258;2022-10-04T23:16:38;13.68;;;7.65;;
65156;SDS011;52745;49.794;18.258;2022-10-04T23:19:08;15.70;;;8.10;;
65156;SDS011;52745;49.794;18.258;2022-10-04T23:21:37;16.17;;;7.97;;
65156;SDS011;52745;49.794;18.258;2022-10-04T23:24:16;17.20;;;7.70;;
65156;SDS011;52745;49.794;18.258;2022-10-04T23:26:46;13.35;;;7.93;;
65156;SDS011;52745;49.794;18.258;2022-10-04T23:29:20;16.80;;;7.53;;
65156;SDS011;52745;49.794;18.258;2022-10-04T23:31:51;20.88;;;8.40;;
65156;SDS011;52745;49.794;18.258;2022-10-04T23:34:19;16.73;;;7.95;;
65156;SDS011;52745;49.794;18.258;2022-10-04T23:36:51;17.95;;;8.43;;
65156;SDS011;52745;49.794;18.258;2022-10-04T23:39:26;16.27;;;7.70;;
65156;SDS011;52745;49.794;18.258;2022-10-04T23:41:55;19.30;;;8.20;;
65156;SDS011;52745;49.794;18.258;2022-10-04T23:44:22;14.55;;;7.85;;
65156;SDS011;52745;49.794;18.258;2022-10-04T23:46:52;14.63;;;8.13;;
65156;SDS011;52745;49.794;18.258;2022-10-04T23:49:18;19.30;;;8.23;;
65156;SDS011;52745;49.794;18.258;2022-10-04T23:51:47;15.23;;;8.25;;
65156;SDS011;52745;49.794;18.258;2022-10-04T23:54:19;14.60;;;8.60;;
65156;SDS011;52745;49.794;18.258;2022-10-04T23:56:46;17.98;;;8.65;;
65156;SDS011;52745;49.794;18.258;2022-10-04T23:59:17;19.90;;;8.43;;
